createdAt,value
2022-08-30T00:03:48.118Z,3.90
2022-08-30T00:07:50.366Z,4.05
2022-08-30T00:11:52.764Z,4.47
2022-08-30T00:15:54.906Z,7.60
2022-08-30T00:19:57.047Z,6.93
2022-08-30T00:23:59.334Z,5.75
2022-08-30T00:28:02.620Z,3.80
2022-08-30T00:32:05.698Z,8.52
2022-08-30T00:36:07.890Z,10.13
2022-08-30T00:40:12.275Z,5.38
2022-08-30T00:44:14.811Z,5.45
2022-08-30T00:48:16.873Z,3.58
2022-08-30T00:52:21.239Z,5.05
2022-08-30T00:56:25.400Z,4.13
2022-08-30T01:04:31.474Z,5.90
2022-08-30T01:08:33.972Z,3.88
2022-08-30T01:12:38.768Z,4.85
2022-08-30T01:16:43.502Z,6.40
2022-08-30T01:20:49.604Z,3.33
2022-08-30T01:24:54.858Z,5.53
2022-08-30T01:29:02.378Z,5.82
2022-08-30T01:33:06.525Z,4.45
2022-08-30T01:37:08.889Z,5.07
2022-08-30T01:41:15.606Z,5.18
2022-08-30T01:45:18.493Z,7.40
2022-08-30T01:49:27.617Z,5.43
2022-08-30T01:53:31.560Z,7.32
2022-08-30T01:57:33.594Z,6.70
2022-08-30T02:01:37.408Z,5.85
2022-08-30T02:05:39.653Z,5.15
2022-08-30T02:09:41.878Z,11.93
2022-08-30T02:13:45.879Z,8.00
2022-08-30T02:17:47.984Z,5.60
2022-08-30T02:21:50.114Z,7.00
2022-08-30T02:25:52.175Z,6.03
2022-08-30T02:29:54.652Z,6.30
2022-08-30T02:33:56.840Z,6.15
2022-08-30T02:37:58.917Z,5.60
2022-08-30T02:42:01.005Z,6.55
2022-08-30T02:46:03.721Z,6.15
2022-08-30T02:50:08.337Z,5.32
2022-08-30T02:54:10.909Z,5.35
2022-08-30T02:58:13.291Z,5.65
2022-08-30T03:02:16.262Z,6.75
2022-08-30T03:06:19.271Z,5.70
2022-08-30T03:10:21.538Z,7.85
2022-08-30T03:14:24.131Z,6.07
2022-08-30T03:18:26.823Z,5.75
2022-08-30T03:22:29.764Z,7.40
2022-08-30T03:26:31.826Z,5.40
2022-08-30T03:30:34.556Z,6.63
2022-08-30T03:34:36.632Z,5.90
2022-08-30T03:38:39.637Z,7.18
2022-08-30T03:42:43.336Z,5.65
2022-08-30T03:46:46.661Z,4.82
2022-08-30T03:50:48.919Z,5.60
2022-08-30T03:54:50.990Z,7.03
2022-08-30T03:58:53.238Z,6.95
2022-08-30T04:02:55.524Z,6.68
2022-08-30T04:06:57.775Z,6.72
2022-08-30T04:11:01.151Z,6.10
2022-08-30T04:15:04.755Z,6.20
2022-08-30T04:19:07.711Z,6.22
2022-08-30T04:23:11.917Z,8.38
2022-08-30T04:27:14.111Z,6.20
2022-08-30T04:31:17.745Z,7.88
2022-08-30T04:35:21.492Z,10.45
2022-08-30T04:39:23.828Z,8.02
2022-08-30T04:43:26.896Z,9.90
2022-08-30T04:47:28.970Z,9.73
2022-08-30T04:51:31.622Z,11.35
2022-08-30T04:55:33.722Z,6.38
2022-08-30T04:59:35.889Z,7.47
2022-08-30T05:03:37.925Z,7.97
2022-08-30T05:07:40.465Z,8.48
2022-08-30T05:11:43.461Z,13.50
2022-08-30T05:15:46.135Z,11.52
2022-08-30T05:19:48.207Z,11.48
2022-08-30T05:23:50.895Z,13.70
2022-08-30T05:27:53.960Z,11.90
2022-08-30T05:31:56.517Z,9.73
2022-08-30T05:35:58.705Z,9.25
2022-08-30T05:40:07.648Z,11.02
2022-08-30T05:44:13.347Z,10.15
2022-08-30T05:48:15.514Z,6.88
2022-08-30T05:52:18.342Z,6.28
2022-08-30T05:56:24.782Z,7.90
2022-08-30T06:00:30.392Z,6.10
2022-08-30T06:04:32.492Z,9.68
2022-08-30T06:08:34.711Z,8.75
2022-08-30T06:12:36.768Z,5.95
2022-08-30T06:16:40.434Z,9.45
2022-08-30T06:20:43.725Z,6.75
2022-08-30T06:25:01.145Z,4.50
2022-08-30T06:29:04.101Z,7.57
2022-08-30T06:33:06.450Z,10.63
2022-08-30T06:37:08.866Z,12.70
2022-08-30T06:41:25.670Z,7.00
2022-08-30T06:45:28.279Z,7.07
2022-08-30T06:49:31.456Z,5.93
2022-08-30T06:53:35.017Z,3.65
2022-08-30T06:57:37.305Z,3.95
2022-08-30T07:01:41.629Z,7.30
2022-08-30T07:05:47.303Z,5.95
2022-08-30T07:09:50.101Z,8.32
2022-08-30T07:13:52.436Z,5.65
2022-08-30T07:18:13.786Z,4.55
2022-08-30T07:22:20.254Z,4.20
2022-08-30T07:26:31.962Z,6.97
2022-08-30T07:30:36.508Z,6.65
2022-08-30T07:34:40.435Z,4.03
2022-08-30T07:38:53.247Z,3.65
2022-08-30T07:43:04.503Z,6.05
2022-08-30T07:47:12.232Z,5.57
2022-08-30T07:51:20.602Z,4.60
2022-08-30T07:55:24.727Z,3.95
2022-08-30T07:59:39.311Z,4.97
2022-08-30T08:03:52.434Z,3.47
2022-08-30T08:07:57.521Z,4.18
2022-08-30T08:12:04.847Z,4.63
2022-08-30T08:16:08.532Z,2.83
2022-08-30T08:20:11.647Z,4.70
2022-08-30T08:24:17.253Z,6.38
2022-08-30T08:28:21.183Z,5.55
2022-08-30T08:32:24.985Z,5.50
2022-08-30T08:40:44.505Z,3.72
2022-08-30T08:45:11.571Z,2.40
2022-08-30T08:49:16.576Z,2.90
2022-08-30T08:57:57.781Z,2.55
2022-08-30T09:02:09.199Z,2.30
2022-08-30T09:06:35.682Z,2.30
2022-08-30T09:10:51.038Z,6.95
2022-08-30T09:14:58.776Z,3.47
2022-08-30T09:19:01.795Z,4.18
2022-08-30T09:23:28.378Z,2.58
2022-08-30T09:27:40.470Z,2.97
2022-08-30T09:32:22.454Z,3.78
2022-08-30T09:36:27.023Z,2.30
2022-08-30T09:40:44.485Z,3.60
2022-08-30T09:44:49.639Z,2.88
2022-08-30T09:48:54.788Z,4.18
2022-08-30T09:53:13.792Z,3.75
2022-08-30T09:57:33.523Z,5.53
2022-08-30T10:01:48.696Z,3.78
2022-08-30T10:06:10.963Z,4.00
2022-08-30T10:10:34.566Z,3.83
2022-08-30T10:14:49.281Z,2.05
2022-08-30T10:19:10.857Z,3.33
2022-08-30T10:23:21.906Z,4.35
2022-08-30T10:27:34.592Z,2.35
2022-08-30T10:31:59.512Z,4.40
2022-08-30T10:36:10.304Z,1.85
2022-08-30T10:40:44.079Z,4.07
2022-08-30T10:44:51.209Z,2.35
2022-08-30T10:48:56.921Z,4.18
2022-08-30T10:53:10.662Z,2.30
2022-08-30T11:01:46.481Z,6.93
2022-08-30T11:10:22.363Z,3.30
2022-08-30T11:14:25.866Z,2.10
2022-08-30T11:18:46.112Z,3.38
2022-08-30T11:23:33.536Z,6.20
2022-08-30T11:27:59.825Z,2.17
2022-08-30T11:32:14.452Z,2.42
2022-08-30T11:36:37.332Z,2.53
2022-08-30T11:44:49.261Z,5.07
2022-08-30T11:49:13.115Z,3.15
2022-08-30T11:53:47.263Z,2.20
2022-08-30T11:57:59.286Z,3.63
2022-08-30T12:02:02.493Z,4.55
2022-08-30T12:06:06.834Z,5.03
2022-08-30T12:10:25.695Z,2.35
2022-08-30T12:14:37.570Z,2.42
2022-08-30T12:18:48.585Z,1.90
2022-08-30T12:23:00.030Z,1.77
2022-08-30T12:27:32.771Z,3.03
2022-08-30T12:31:58.374Z,2.88
2022-08-30T12:36:36.608Z,1.58
2022-08-30T12:40:50.951Z,1.35
2022-08-30T12:44:56.818Z,1.65
2022-08-30T12:53:56.792Z,1.23
2022-08-30T12:58:09.521Z,1.63
2022-08-30T13:02:26.575Z,1.40
2022-08-30T13:06:44.128Z,1.40
2022-08-30T13:11:04.378Z,2.88
2022-08-30T13:15:28.840Z,3.45
2022-08-30T13:19:34.360Z,2.22
2022-08-30T13:23:36.836Z,2.58
2022-08-30T13:27:40.254Z,2.03
2022-08-30T13:31:42.831Z,1.73
2022-08-30T13:35:45.991Z,6.25
2022-08-30T13:39:49.466Z,1.80
2022-08-30T13:44:11.741Z,2.55
2022-08-30T13:48:17.448Z,2.45
2022-08-30T13:52:28.831Z,2.83
2022-08-30T13:56:32.756Z,3.58
2022-08-30T14:00:38.118Z,2.55
2022-08-30T14:04:42.677Z,2.10
2022-08-30T14:08:47.850Z,3.30
2022-08-30T14:12:53.266Z,1.83
2022-08-30T14:16:56.445Z,1.80
2022-08-30T14:21:03.065Z,3.40
2022-08-30T14:25:21.795Z,2.65
2022-08-30T14:29:29.951Z,1.80
2022-08-30T14:33:35.381Z,1.52
2022-08-30T14:37:39.503Z,4.00
2022-08-30T14:41:45.915Z,1.60
2022-08-30T14:45:49.495Z,2.45
2022-08-30T14:49:54.053Z,2.47
2022-08-30T14:53:56.655Z,1.90
2022-08-30T14:58:00.086Z,1.23
2022-08-30T15:02:02.767Z,4.57
2022-08-30T15:06:06.628Z,3.30
2022-08-30T15:10:10.019Z,3.45
2022-08-30T15:14:15.953Z,2.83
2022-08-30T15:18:19.269Z,1.60
2022-08-30T15:22:21.490Z,2.65
2022-08-30T15:26:24.561Z,2.00
2022-08-30T15:30:27.309Z,9.20
2022-08-30T15:34:32.678Z,2.30
2022-08-30T15:38:37.394Z,4.10
2022-08-30T15:42:40.568Z,1.73
2022-08-30T15:46:46.095Z,1.77
2022-08-30T15:50:59.007Z,3.05
2022-08-30T15:55:01.800Z,2.30
2022-08-30T15:59:05.431Z,2.80
2022-08-30T16:03:09.587Z,1.90
2022-08-30T16:07:13.104Z,2.55
2022-08-30T16:15:24.615Z,1.90
2022-08-30T16:19:33.256Z,3.45
2022-08-30T16:23:39.294Z,3.22
2022-08-30T16:27:43.527Z,2.65
2022-08-30T16:31:47.382Z,6.13
2022-08-30T16:35:54.500Z,3.60
2022-08-30T16:39:56.803Z,5.00
2022-08-30T16:44:00.415Z,3.17
2022-08-30T16:48:03.419Z,4.18
2022-08-30T16:52:06.054Z,3.67
2022-08-30T16:56:20.667Z,2.97
2022-08-30T17:04:40.320Z,3.60
2022-08-30T17:08:43.697Z,3.33
2022-08-30T17:12:46.610Z,3.63
2022-08-30T17:16:49.122Z,4.50
2022-08-30T17:20:51.602Z,5.77
2022-08-30T17:28:58.367Z,2.63
2022-08-30T17:33:01.379Z,4.03
2022-08-30T17:37:04.850Z,4.18
2022-08-30T17:41:10.541Z,3.65
2022-08-30T17:45:17.084Z,5.60
2022-08-30T17:49:20.108Z,2.38
2022-08-30T17:53:25.015Z,3.70
2022-08-30T17:57:32.820Z,3.13
2022-08-30T18:01:46.793Z,3.85
2022-08-30T18:05:53.970Z,3.60
2022-08-30T18:09:58.602Z,4.50
2022-08-30T18:14:05.298Z,3.58
2022-08-30T18:18:15.590Z,2.00
2022-08-30T18:22:27.689Z,4.38
2022-08-30T18:26:35.824Z,4.85
2022-08-30T18:30:41.493Z,2.58
2022-08-30T18:35:11.817Z,4.10
2022-08-30T18:39:26.015Z,4.97
2022-08-30T18:43:38.962Z,4.53
2022-08-30T18:52:55.996Z,3.28
2022-08-30T18:57:07.747Z,4.23
2022-08-30T19:01:25.002Z,8.05
2022-08-30T19:05:46.287Z,3.83
2022-08-30T19:09:56.238Z,5.53
2022-08-30T19:14:44.161Z,3.80
2022-08-30T19:29:11.543Z,2.17
2022-08-30T19:34:17.951Z,2.40
2022-08-30T19:38:53.789Z,3.15
2022-08-30T19:43:11.246Z,6.03
2022-08-30T19:47:47.598Z,3.90
2022-08-30T19:51:58.099Z,3.13
2022-08-30T19:56:07.488Z,2.40
2022-08-30T20:01:32.524Z,4.03
2022-08-30T20:05:57.114Z,4.60
2022-08-30T20:10:20.082Z,2.75
2022-08-30T20:14:36.910Z,5.72
2022-08-30T20:24:37.774Z,2.45
2022-08-30T20:34:02.447Z,3.08
2022-08-30T20:38:24.654Z,2.60
2022-08-30T20:42:56.159Z,3.05
2022-08-30T20:47:24.468Z,2.63
2022-08-30T20:56:53.792Z,3.08
2022-08-30T21:06:48.365Z,5.47
2022-08-30T21:10:53.029Z,4.15
2022-08-30T21:14:55.499Z,7.57
2022-08-30T21:18:57.872Z,8.07
2022-08-30T21:23:00.425Z,16.00
2022-08-30T21:27:03.632Z,11.70
2022-08-30T21:31:12.781Z,2.97
2022-08-30T21:35:33.668Z,2.35
2022-08-30T21:39:35.810Z,4.57
2022-08-30T21:43:38.014Z,2.33
2022-08-30T21:47:40.335Z,3.92
2022-08-30T21:51:45.087Z,2.42
2022-08-30T21:55:48.166Z,2.67
2022-08-30T21:59:50.544Z,3.77
2022-08-30T22:03:55.041Z,3.10
2022-08-30T22:07:57.217Z,5.13
2022-08-30T22:11:59.366Z,3.00
2022-08-30T22:16:02.722Z,4.25
2022-08-30T22:20:06.978Z,4.18
2022-08-30T22:24:12.189Z,8.30
2022-08-30T22:28:15.218Z,6.65
2022-08-30T22:32:17.391Z,3.13
2022-08-30T22:36:32.793Z,4.20
2022-08-30T22:40:36.033Z,3.30
2022-08-30T22:44:39.066Z,4.40
2022-08-30T22:48:44.265Z,3.92
2022-08-30T22:52:46.677Z,4.25
2022-08-30T22:56:52.004Z,3.83
2022-08-30T23:00:55.124Z,2.83
2022-08-30T23:04:57.770Z,4.83
2022-08-30T23:09:00.403Z,4.20
2022-08-30T23:13:02.902Z,4.13
2022-08-30T23:17:05.009Z,5.60
2022-08-30T23:21:16.723Z,5.45
2022-08-30T23:25:41.496Z,6.20
2022-08-30T23:30:02.920Z,4.38
2022-08-30T23:34:25.430Z,4.45
2022-08-30T23:38:46.052Z,4.85
2022-08-30T23:43:06.619Z,6.40
2022-08-30T23:47:27.547Z,6.05
2022-08-30T23:51:53.050Z,6.45
2022-08-30T23:56:14.110Z,4.40
